Time;durP1;ratioP1;P1;durP2;ratioP2;P2;SDS_P1;SDS_P2;PMS_P1;PMS_P2;Temp;Humidity;BMP_temperature;BMP_pressure;BME280_temperature;BME280_humidity;BME280_pressure;Samples;Min_cycle;Max_cycle;Signal;HPM_P1;HPM_P2
2021/08/15 00:00:28;;;;;;;7.00;6.07;;;21.10;1.00;;;;;;5035693;28;20465;-77
2021/08/15 00:02:56;;;;;;;7.67;5.47;;;21.00;1.00;;;;;;5037035;28;20473;-77
2021/08/15 00:05:22;;;;;;;9.50;6.17;;;20.90;1.00;;;;;;5015951;28;20466;-74
2021/08/15 00:07:50;;;;;;;7.43;5.63;;;20.80;1.00;;;;;;5036712;28;20457;-73
2021/08/15 00:10:18;;;;;;;6.63;5.70;;;20.70;1.00;;;;;;5040787;28;20438;-74
2021/08/15 00:12:45;;;;;;;9.47;6.20;;;20.60;1.00;;;;;;5040711;28;20468;-73
2021/08/15 00:15:13;;;;;;;8.27;5.97;;;20.50;1.00;;;;;;5027428;28;21356;-74
2021/08/15 00:17:41;;;;;;;7.40;6.00;;;20.30;1.00;;;;;;5045460;28;20425;-73
2021/08/15 00:20:09;;;;;;;8.47;6.23;;;20.30;1.00;;;;;;5045849;28;20541;-73
2021/08/15 00:22:38;;;;;;;7.80;5.20;;;20.20;1.00;;;;;;5041334;28;20464;-73
2021/08/15 00:25:08;;;;;;;6.37;5.57;;;20.10;1.00;;;;;;5040505;28;20542;-73
2021/08/15 00:27:35;;;;;;;8.33;5.60;;;20.00;1.00;;;;;;5046183;28;21265;-74
2021/08/15 00:30:01;;;;;;;6.60;5.80;;;20.00;1.00;;;;;;5030349;28;20439;-74
2021/08/15 00:32:28;;;;;;;7.40;6.10;;;20.00;1.00;;;;;;5043695;28;22814;-73
2021/08/15 00:34:54;;;;;;;7.33;5.10;;;19.90;1.00;;;;;;5042684;28;20467;-73
2021/08/15 00:37:23;;;;;;;7.63;5.00;;;19.80;1.00;;;;;;5045952;28;20444;-73
2021/08/15 00:39:49;;;;;;;10.33;6.07;;;19.70;1.00;;;;;;5050107;28;20540;-75
2021/08/15 00:42:20;;;;;;;10.57;5.97;;;19.70;1.00;;;;;;5049409;28;20455;-73
2021/08/15 00:44:48;;;;;;;6.90;5.57;;;19.70;1.00;;;;;;5048620;28;20457;-73
2021/08/15 00:47:15;;;;;;;8.07;5.67;;;19.60;1.00;;;;;;5043503;28;20982;-72
2021/08/15 00:49:42;;;;;;;6.90;5.23;;;19.60;1.00;;;;;;5043712;28;20576;-74
2021/08/15 00:52:10;;;;;;;9.20;5.63;;;19.60;1.00;;;;;;5043016;28;21285;-73
2021/08/15 00:54:37;;;;;;;8.03;5.60;;;19.50;1.00;;;;;;5043282;28;20598;-73
2021/08/15 00:57:06;;;;;;;7.70;5.40;;;19.50;1.00;;;;;;5045482;28;20453;-74
2021/08/15 00:59:37;;;;;;;6.67;5.60;;;19.40;1.00;;;;;;5026496;28;20445;-73
2021/08/15 01:02:04;;;;;;;6.20;5.30;;;19.40;1.00;;;;;;5053624;28;20449;-77
2021/08/15 01:04:31;;;;;;;9.37;5.50;;;19.30;1.00;;;;;;5054548;28;20549;-79
2021/08/15 01:06:58;;;;;;;7.23;5.63;;;19.30;1.00;;;;;;5051980;28;20455;-74
2021/08/15 01:09:25;;;;;;;8.13;4.97;;;19.30;1.00;;;;;;5051046;28;20562;-76
2021/08/15 01:11:52;;;;;;;9.47;6.97;;;19.30;1.00;;;;;;5039952;28;20474;-75
2021/08/15 01:14:19;;;;;;;7.73;6.77;;;19.20;1.00;;;;;;5055400;28;20460;-77
2021/08/15 01:16:47;;;;;;;9.17;6.30;;;19.20;1.00;;;;;;5062079;28;20455;-76
2021/08/15 01:19:17;;;;;;;6.20;5.10;;;19.10;1.00;;;;;;5066054;28;20449;-73
2021/08/15 01:21:44;;;;;;;7.40;5.80;;;19.10;1.00;;;;;;5054205;28;20550;-72
2021/08/15 01:24:12;;;;;;;10.10;5.93;;;19.00;1.00;;;;;;5056493;28;20538;-74
2021/08/15 01:26:40;;;;;;;7.37;5.47;;;19.00;1.00;;;;;;5061834;28;20449;-72
2021/08/15 01:29:08;;;;;;;8.07;5.37;;;19.00;1.00;;;;;;5058647;28;21218;-73
2021/08/15 01:31:35;;;;;;;7.20;6.30;;;18.90;1.00;;;;;;5059883;28;20567;-73
2021/08/15 01:34:02;;;;;;;6.43;5.60;;;18.90;1.00;;;;;;5050720;28;20475;-72
2021/08/15 01:36:29;;;;;;;7.13;5.10;;;18.90;1.00;;;;;;5063842;28;20411;-71
2021/08/15 01:38:57;;;;;;;9.53;5.80;;;18.80;1.00;;;;;;5058351;28;20436;-74
2021/08/15 01:41:24;;;;;;;9.23;6.20;;;18.80;1.00;;;;;;5053249;28;20963;-73
2021/08/15 01:43:54;;;;;;;6.77;5.30;;;18.80;1.00;;;;;;5059549;28;20460;-74
2021/08/15 01:46:25;;;;;;;6.40;5.70;;;18.80;1.00;;;;;;5054246;28;20452;-72
2021/08/15 01:48:52;;;;;;;7.03;5.17;;;18.80;1.00;;;;;;5057508;28;20539;-73
2021/08/15 01:51:19;;;;;;;10.90;5.80;;;18.70;1.00;;;;;;5056576;28;20520;-73
2021/08/15 01:53:48;;;;;;;7.53;5.00;;;18.70;1.00;;;;;;5055865;28;20459;-74
2021/08/15 01:56:14;;;;;;;7.23;5.73;;;18.70;1.00;;;;;;5039018;28;20451;-73
2021/08/15 01:58:41;;;;;;;6.13;5.20;;;18.60;1.00;;;;;;5055182;28;20566;-73
2021/08/15 02:01:08;;;;;;;8.03;5.47;;;18.60;1.00;;;;;;5054694;28;20454;-74
2021/08/15 02:03:37;;;;;;;8.10;5.17;;;18.50;1.00;;;;;;5031655;28;21516;-72
2021/08/15 02:06:05;;;;;;;8.20;5.37;;;18.40;1.00;;;;;;5055076;28;20448;-76
2021/08/15 02:08:31;;;;;;;7.67;5.23;;;18.30;1.00;;;;;;5056692;28;20423;-78
2021/08/15 02:10:58;;;;;;;7.47;5.93;;;18.40;1.00;;;;;;5064190;28;20546;-78
2021/08/15 02:13:25;;;;;;;6.50;5.50;;;18.30;1.00;;;;;;5064751;28;20459;-76
2021/08/15 02:15:51;;;;;;;8.43;5.40;;;18.30;1.00;;;;;;5063241;28;20423;-78
2021/08/15 02:18:18;;;;;;;6.23;5.20;;;18.30;1.00;;;;;;5050402;28;21881;-76
2021/08/15 02:20:46;;;;;;;10.80;6.20;;;18.20;1.00;;;;;;5070686;28;20480;-77
2021/08/15 02:23:13;;;;;;;10.13;5.77;;;18.20;1.00;;;;;;5066490;28;20550;-77
2021/08/15 02:25:41;;;;;;;9.83;6.10;;;18.20;1.00;;;;;;5063602;28;20412;-78
2021/08/15 02:28:08;;;;;;;10.30;5.93;;;18.20;1.00;;;;;;5070228;28;21317;-76
2021/08/15 02:30:35;;;;;;;9.97;5.23;;;18.20;1.00;;;;;;5064708;28;20447;-78
2021/08/15 02:33:02;;;;;;;12.00;5.83;;;18.10;1.00;;;;;;5064323;28;20420;-78
2021/08/15 02:35:31;;;;;;;9.67;5.00;;;18.10;1.00;;;;;;5058835;28;20446;-77
2021/08/15 02:38:00;;;;;;;8.80;5.57;;;18.00;1.00;;;;;;5039841;28;20444;-76
2021/08/15 02:40:28;;;;;;;8.90;5.40;;;18.00;1.00;;;;;;5048339;28;20422;-74
2021/08/15 02:42:55;;;;;;;9.67;5.83;;;17.90;1.00;;;;;;5032688;28;21843;-74
2021/08/15 02:45:25;;;;;;;10.80;6.00;;;17.80;1.00;;;;;;5048347;28;20436;-74
2021/08/15 02:47:52;;;;;;;8.33;5.00;;;17.80;1.00;;;;;;5050567;28;20443;-73
2021/08/15 02:50:20;;;;;;;6.37;5.50;;;17.70;1.00;;;;;;5046949;28;20535;-73
2021/08/15 02:52:48;;;;;;;8.93;5.23;;;17.70;1.00;;;;;;5031560;28;20498;-73
2021/08/15 02:55:16;;;;;;;7.37;5.50;;;17.70;1.00;;;;;;5047743;28;20459;-77
2021/08/15 02:57:43;;;;;;;10.07;6.20;;;17.60;1.00;;;;;;5046829;28;21127;-78
2021/08/15 03:00:12;;;;;;;6.43;5.30;;;17.60;1.00;;;;;;5051583;28;20447;-78
2021/08/15 03:02:39;;;;;;;7.03;5.50;;;17.60;1.00;;;;;;5041739;28;20978;-76
2021/08/15 03:05:07;;;;;;;7.40;5.53;;;17.50;1.00;;;;;;5041153;28;20518;-76
2021/08/15 03:07:35;;;;;;;6.00;5.40;;;17.50;1.00;;;;;;5044121;28;20456;-76
2021/08/15 03:10:02;;;;;;;8.73;6.00;;;17.40;1.00;;;;;;5047727;28;20443;-77
2021/08/15 03:12:30;;;;;;;7.93;6.27;;;17.30;1.00;;;;;;5048526;28;20470;-77
2021/08/15 03:14:56;;;;;;;7.20;5.30;;;17.30;1.00;;;;;;5040856;28;20456;-76
2021/08/15 03:17:23;;;;;;;10.10;6.43;;;17.30;1.00;;;;;;5043338;28;20435;-76
2021/08/15 03:19:50;;;;;;;15.13;8.10;;;17.30;1.00;;;;;;5040571;28;20456;-77
2021/08/15 03:22:17;;;;;;;6.60;5.90;;;17.20;1.00;;;;;;5042370;28;20471;-79
2021/08/15 03:24:44;;;;;;;12.73;6.40;;;17.20;1.00;;;;;;5011869;28;20846;-76
2021/08/15 03:27:10;;;;;;;8.47;5.60;;;17.10;1.00;;;;;;5045256;28;20506;-77
2021/08/15 03:29:38;;;;;;;9.27;6.27;;;17.10;1.00;;;;;;5041331;28;20447;-77
2021/08/15 03:32:06;;;;;;;9.23;5.83;;;17.10;1.00;;;;;;5047401;28;20476;-77
2021/08/15 03:34:32;;;;;;;7.30;6.30;;;17.20;1.00;;;;;;5045037;28;21244;-76
2021/08/15 03:36:59;;;;;;;6.80;5.90;;;17.20;1.00;;;;;;5024524;28;20455;-77
2021/08/15 03:39:29;;;;;;;9.00;6.90;;;17.20;1.00;;;;;;5040104;28;22729;-76
2021/08/15 03:41:58;;;;;;;8.60;6.10;;;17.20;1.00;;;;;;5041143;28;20466;-76
2021/08/15 03:44:26;;;;;;;7.07;6.00;;;17.20;1.00;;;;;;5042271;28;20454;-75
2021/08/15 03:46:55;;;;;;;9.70;6.10;;;17.20;1.00;;;;;;5042277;28;20448;-78
2021/08/15 03:49:22;;;;;;;10.30;6.47;;;17.10;1.00;;;;;;5041561;28;20465;-77
2021/08/15 03:51:48;;;;;;;6.67;5.97;;;17.10;1.00;;;;;;5044667;28;20452;-78
2021/08/15 03:54:19;;;;;;;7.57;5.80;;;17.10;1.00;;;;;;5041585;28;20584;-78
2021/08/15 03:56:46;;;;;;;7.90;6.57;;;17.10;1.00;;;;;;5043353;28;20440;-76
2021/08/15 03:59:13;;;;;;;10.90;6.50;;;17.10;1.00;;;;;;5044118;28;20451;-78
2021/08/15 04:01:40;;;;;;;10.83;7.23;;;17.10;1.00;;;;;;5043275;28;20530;-77
2021/08/15 04:04:08;;;;;;;15.30;14.10;;;17.10;1.00;;;;;;5043271;28;20898;-77
2021/08/15 04:06:35;;;;;;;9.73;7.13;;;17.00;1.00;;;;;;5044558;28;20439;-78
2021/08/15 04:09:02;;;;;;;7.73;6.77;;;17.00;1.00;;;;;;5037060;28;20458;-77
2021/08/15 04:11:29;;;;;;;9.20;6.10;;;17.00;1.00;;;;;;5045333;28;20503;-77
2021/08/15 04:13:56;;;;;;;8.57;5.90;;;17.10;1.00;;;;;;5042940;28;20457;-78
2021/08/15 04:16:23;;;;;;;10.57;7.70;;;17.10;1.00;;;;;;5045092;28;20694;-76
2021/08/15 04:18:50;;;;;;;8.33;6.50;;;17.10;1.00;;;;;;5042722;28;20451;-76
2021/08/15 04:21:18;;;;;;;8.43;6.67;;;17.10;1.00;;;;;;5042296;28;20453;-77
2021/08/15 04:23:45;;;;;;;10.20;5.90;;;17.10;1.00;;;;;;5039821;28;20443;-76
2021/08/15 04:26:14;;;;;;;7.87;6.50;;;17.20;1.00;;;;;;5041530;28;20441;-78
2021/08/15 04:28:41;;;;;;;7.77;5.80;;;17.10;1.00;;;;;;5041982;28;20452;-76
2021/08/15 04:31:07;;;;;;;8.33;6.00;;;17.10;1.00;;;;;;5040523;28;20479;-78
2021/08/15 04:33:34;;;;;;;7.33;6.20;;;17.10;1.00;;;;;;5025484;28;20435;-78
2021/08/15 04:36:01;;;;;;;10.47;7.00;;;17.10;1.00;;;;;;5041684;28;20444;-77
2021/08/15 04:38:29;;;;;;;7.03;6.07;;;17.10;1.00;;;;;;5022125;28;20473;-76
2021/08/15 04:40:56;;;;;;;8.13;6.20;;;17.10;1.00;;;;;;5041810;28;20519;-78
2021/08/15 04:43:22;;;;;;;8.40;7.00;;;17.10;1.00;;;;;;5029239;28;20557;-77
2021/08/15 04:45:49;;;;;;;8.90;6.90;;;17.10;1.00;;;;;;5045094;28;21657;-76
2021/08/15 04:48:16;;;;;;;10.10;6.40;;;17.10;1.00;;;;;;5028531;28;20819;-76
2021/08/15 04:50:45;;;;;;;9.00;7.03;;;17.10;1.00;;;;;;5040524;28;20467;-77
2021/08/15 04:53:12;;;;;;;9.80;7.10;;;17.20;1.00;;;;;;5040945;28;20467;-78
2021/08/15 04:55:40;;;;;;;6.70;5.87;;;17.20;1.00;;;;;;5042619;28;20524;-77
2021/08/15 04:58:07;;;;;;;8.67;6.23;;;17.30;1.00;;;;;;5044835;28;20474;-77
2021/08/15 05:00:34;;;;;;;9.40;7.10;;;17.40;1.00;;;;;;5025195;28;20549;-78
2021/08/15 05:03:01;;;;;;;8.73;7.27;;;17.40;1.00;;;;;;5051966;28;20442;-78
2021/08/15 05:05:28;;;;;;;9.50;6.43;;;17.40;1.00;;;;;;5048043;28;21333;-76
2021/08/15 05:07:55;;;;;;;6.77;6.10;;;17.50;1.00;;;;;;5047754;28;20428;-76
2021/08/15 05:10:21;;;;;;;10.60;7.27;;;17.60;1.00;;;;;;5049544;28;21769;-77
2021/08/15 05:12:50;;;;;;;8.80;5.93;;;17.70;1.00;;;;;;5060465;28;20469;-77
2021/08/15 05:15:17;;;;;;;8.50;7.13;;;17.80;1.00;;;;;;5075771;28;20434;-77
2021/08/15 05:17:44;;;;;;;8.50;6.57;;;17.80;1.00;;;;;;5062424;28;20527;-76
2021/08/15 05:20:12;;;;;;;7.93;7.10;;;18.00;1.00;;;;;;5075496;28;20467;-78
2021/08/15 05:22:39;;;;;;;8.97;6.17;;;18.00;1.00;;;;;;5078965;28;20416;-78
2021/08/15 05:25:06;;;;;;;8.30;6.10;;;18.10;1.00;;;;;;5057805;28;20430;-78
2021/08/15 05:27:33;;;;;;;9.93;6.93;;;18.20;1.00;;;;;;5053564;28;20468;-78
2021/08/15 05:30:01;;;;;;;8.43;6.37;;;18.20;1.00;;;;;;5053070;28;21306;-77
2021/08/15 05:32:28;;;;;;;7.97;6.30;;;18.30;1.00;;;;;;5054196;28;20448;-77
2021/08/15 05:34:55;;;;;;;11.27;6.30;;;18.30;1.00;;;;;;5050947;28;21454;-76
2021/08/15 05:37:24;;;;;;;13.90;6.97;;;18.40;1.00;;;;;;5056576;28;20542;-77
2021/08/15 05:39:50;;;;;;;10.60;6.73;;;18.40;1.00;;;;;;5050815;28;21590;-77
2021/08/15 05:42:17;;;;;;;11.83;6.80;;;18.50;1.00;;;;;;5052481;28;20447;-78
2021/08/15 05:44:44;;;;;;;9.17;6.77;;;18.50;1.00;;;;;;5033877;28;20448;-76
2021/08/15 05:47:12;;;;;;;8.67;6.43;;;18.60;1.00;;;;;;5050060;28;20524;-77
2021/08/15 05:49:39;;;;;;;8.83;6.90;;;18.60;1.00;;;;;;5047965;28;20987;-78
2021/08/15 05:52:06;;;;;;;8.10;6.43;;;18.70;1.00;;;;;;5044710;28;20432;-77
2021/08/15 05:54:33;;;;;;;8.77;6.40;;;18.70;1.00;;;;;;5027579;28;20483;-78
2021/08/15 05:56:59;;;;;;;8.50;6.93;;;18.90;1.00;;;;;;5042392;28;21346;-77
2021/08/15 05:59:26;;;;;;;8.53;6.23;;;19.00;1.00;;;;;;5044394;28;20495;-76
2021/08/15 06:01:55;;;;;;;8.10;5.77;;;19.20;1.00;;;;;;5046713;28;20454;-77
2021/08/15 06:04:23;;;;;;;7.87;5.83;;;19.30;1.00;;;;;;5044830;28;20467;-78
2021/08/15 06:06:49;;;;;;;11.20;6.10;;;19.40;1.00;;;;;;5049175;28;20459;-78
2021/08/15 06:09:16;;;;;;;7.70;5.20;;;19.60;1.00;;;;;;5046404;28;20459;-78
2021/08/15 06:11:43;;;;;;;9.53;6.30;;;19.70;1.00;;;;;;5040544;28;20457;-76
2021/08/15 06:14:09;;;;;;;8.37;5.57;;;19.80;1.00;;;;;;5027826;28;20463;-78
2021/08/15 06:16:36;;;;;;;10.00;5.40;;;19.80;1.00;;;;;;5051875;28;20479;-76
2021/08/15 06:19:03;;;;;;;8.50;5.70;;;19.90;1.00;;;;;;5045408;28;20469;-77
2021/08/15 06:21:31;;;;;;;8.43;5.83;;;20.00;1.00;;;;;;5045922;28;20456;-77
2021/08/15 06:23:57;;;;;;;7.63;5.60;;;20.10;1.00;;;;;;5029690;28;20422;-76
2021/08/15 06:26:25;;;;;;;10.07;5.87;;;20.10;1.00;;;;;;5045953;28;20536;-77
2021/08/15 06:28:52;;;;;;;8.90;6.50;;;20.20;1.00;;;;;;5029123;28;20425;-76
2021/08/15 06:31:19;;;;;;;6.63;5.20;;;20.20;1.00;;;;;;5053123;28;21272;-77
2021/08/15 06:33:46;;;;;;;6.50;5.13;;;20.10;1.00;;;;;;5047618;28;20482;-74
2021/08/15 06:36:13;;;;;;;12.63;6.20;;;20.00;1.00;;;;;;5047747;28;20442;-73
2021/08/15 06:38:41;;;;;;;7.80;5.70;;;19.90;1.00;;;;;;5043057;28;20420;-72
2021/08/15 06:41:08;;;;;;;8.13;5.10;;;20.00;1.00;;;;;;5058193;28;20420;-73
2021/08/15 06:43:35;;;;;;;8.80;5.90;;;20.10;1.00;;;;;;5049195;28;20437;-74
2021/08/15 06:46:01;;;;;;;7.73;5.27;;;20.10;1.00;;;;;;5025055;28;20495;-75
2021/08/15 06:48:28;;;;;;;9.33;5.30;;;20.10;1.00;;;;;;5038688;28;20449;-75
2021/08/15 06:50:58;;;;;;;8.73;6.53;;;20.20;1.00;;;;;;5043752;28;20437;-74
2021/08/15 06:53:25;;;;;;;5.93;5.13;;;20.40;1.00;;;;;;5044847;28;20533;-73
2021/08/15 06:55:56;;;;;;;8.00;5.47;;;20.60;1.00;;;;;;5046198;28;20474;-75
2021/08/15 06:58:23;;;;;;;8.60;5.60;;;20.70;1.00;;;;;;5046697;28;20469;-73
2021/08/15 07:00:50;;;;;;;8.80;5.23;;;20.80;1.00;;;;;;5045962;28;20984;-74
2021/08/15 07:03:17;;;;;;;8.23;5.67;;;20.90;1.00;;;;;;5027570;28;22441;-79
2021/08/15 07:05:43;;;;;;;8.73;5.53;;;21.00;1.00;;;;;;5064629;28;20406;-71
2021/08/15 07:08:10;;;;;;;8.33;5.03;;;21.10;1.00;;;;;;5061404;28;20423;-76
2021/08/15 07:10:37;;;;;;;9.20;4.80;;;21.20;1.00;;;;;;5084111;27;20427;-76
2021/08/15 07:13:09;;;;;;;12.93;6.20;;;21.40;1.00;;;;;;5077066;27;20405;-74
2021/08/15 07:15:36;;;;;;;7.33;4.90;;;21.40;1.00;;;;;;5080850;27;20528;-75
2021/08/15 07:18:04;;;;;;;7.67;4.97;;;21.50;1.00;;;;;;5082280;27;20422;-74
2021/08/15 07:20:31;;;;;;;10.13;6.07;;;21.50;1.00;;;;;;5076750;27;20403;-74
2021/08/15 07:22:58;;;;;;;7.30;4.93;;;21.60;1.00;;;;;;5071780;27;20465;-73
2021/08/15 07:25:28;;;;;;;11.10;5.57;;;21.70;1.00;;;;;;5053913;27;20464;-74
2021/08/15 07:27:55;;;;;;;7.40;5.40;;;21.70;1.00;;;;;;5069265;28;20464;-72
2021/08/15 07:30:25;;;;;;;9.60;5.40;;;21.80;1.00;;;;;;5074883;28;20438;-77
2021/08/15 07:32:54;;;;;;;9.53;5.87;;;21.70;1.00;;;;;;5057310;28;20413;-73
2021/08/15 07:35:21;;;;;;;11.87;5.50;;;21.80;1.00;;;;;;5079498;27;20441;-73
2021/08/15 07:37:48;;;;;;;9.87;5.20;;;21.90;1.00;;;;;;5072937;28;20448;-72
2021/08/15 07:40:15;;;;;;;9.33;5.30;;;22.00;1.00;;;;;;5079862;28;20420;-72
2021/08/15 07:42:43;;;;;;;6.00;4.83;;;22.00;1.00;;;;;;5078785;28;20478;-73
2021/08/15 07:45:10;;;;;;;8.50;5.23;;;22.00;1.00;;;;;;5073917;28;20504;-72
2021/08/15 07:47:40;;;;;;;5.17;4.30;;;22.10;1.00;;;;;;5064357;28;20575;-77
2021/08/15 07:50:09;;;;;;;10.30;4.97;;;22.10;1.00;;;;;;5050659;28;20407;-76
2021/08/15 07:52:35;;;;;;;9.77;4.63;;;22.10;1.00;;;;;;5049487;28;20458;-75
2021/08/15 07:55:02;;;;;;;8.50;5.60;;;22.20;1.00;;;;;;5050411;28;20461;-76
2021/08/15 07:57:30;;;;;;;6.60;4.43;;;22.40;1.00;;;;;;5048552;28;20540;-73
2021/08/15 07:59:57;;;;;;;6.43;4.60;;;22.50;1.00;;;;;;5055846;28;20992;-76
2021/08/15 08:02:24;;;;;;;8.40;4.90;;;22.50;1.00;;;;;;5053039;28;20461;-77
2021/08/15 08:04:52;;;;;;;8.07;5.03;;;22.50;1.00;;;;;;5054730;28;20430;-78
2021/08/15 08:07:19;;;;;;;6.27;4.30;;;22.70;1.00;;;;;;5056620;28;20455;-76
2021/08/15 08:09:47;;;;;;;6.10;4.70;;;22.80;1.00;;;;;;5052991;28;20435;-76
2021/08/15 08:12:14;;;;;;;6.97;4.37;;;22.90;1.00;;;;;;5056830;28;20445;-76
2021/08/15 08:14:41;;;;;;;9.10;4.77;;;22.90;1.00;;;;;;5058293;28;20425;-77
2021/08/15 08:17:08;;;;;;;9.00;5.20;;;22.90;1.00;;;;;;5057338;28;20456;-77
2021/08/15 08:19:35;;;;;;;7.63;5.03;;;22.90;1.00;;;;;;5048171;28;20554;-77
2021/08/15 08:22:04;;;;;;;7.00;4.70;;;22.90;1.00;;;;;;5052884;28;20443;-78
2021/08/15 08:24:31;;;;;;;10.73;5.17;;;23.00;1.00;;;;;;5035174;28;20460;-77
2021/08/15 08:26:57;;;;;;;4.93;4.13;;;23.20;1.00;;;;;;5053482;28;20469;-77
2021/08/15 08:29:24;;;;;;;6.47;4.50;;;23.40;1.00;;;;;;5056701;28;21122;-77
2021/08/15 08:31:51;;;;;;;5.57;3.90;;;23.50;1.00;;;;;;5056814;28;20450;-77
2021/08/15 08:34:18;;;;;;;7.93;5.70;;;23.40;1.00;;;;;;5051825;28;20444;-76
2021/08/15 08:36:44;;;;;;;6.67;4.60;;;23.40;1.00;;;;;;5055383;28;20482;-78
2021/08/15 08:39:13;;;;;;;7.03;5.30;;;23.40;1.00;;;;;;5050440;28;20548;-79
2021/08/15 08:41:40;;;;;;;5.03;4.00;;;23.50;1.00;;;;;;5057191;28;20521;-76
2021/08/15 08:44:08;;;;;;;7.60;4.60;;;23.60;1.00;;;;;;5054377;28;20459;-77
2021/08/15 08:46:35;;;;;;;4.83;4.20;;;23.80;1.00;;;;;;5053726;28;20496;-78
2021/08/15 08:49:03;;;;;;;6.17;4.40;;;23.90;1.00;;;;;;5052694;28;20428;-79
2021/08/15 08:51:30;;;;;;;6.20;4.33;;;24.00;1.00;;;;;;5053041;28;20450;-79
2021/08/15 08:53:58;;;;;;;6.17;4.40;;;24.10;1.00;;;;;;5052836;28;20446;-79
2021/08/15 08:56:26;;;;;;;5.83;3.70;;;24.10;1.00;;;;;;5051099;28;20500;-77
2021/08/15 08:58:55;;;;;;;6.80;6.00;;;24.20;1.00;;;;;;5065244;28;20482;-76
2021/08/15 09:01:22;;;;;;;5.60;4.17;;;24.40;1.00;;;;;;5057442;28;20455;-75
2021/08/15 09:03:49;;;;;;;7.30;4.00;;;24.50;1.00;;;;;;5057870;28;20468;-76
2021/08/15 09:06:20;;;;;;;7.83;4.80;;;24.70;1.00;;;;;;5056520;28;20454;-79
2021/08/15 09:08:47;;;;;;;6.23;4.30;;;24.80;1.00;;;;;;5065237;28;20459;-80
2021/08/15 09:11:18;;;;;;;8.03;5.07;;;24.90;1.00;;;;;;5051822;28;20476;-79
2021/08/15 09:14:00;;;;;;;4.93;3.80;;;25.00;1.00;;;;;;5053143;28;20469;-79
2021/08/15 09:16:58;;;;;;;5.00;4.30;;;25.10;1.00;;;;;;5085325;27;20463;-81
2021/08/15 09:19:35;;;;;;;7.33;4.30;;;25.10;1.00;;;;;;5083174;27;20420;-79
2021/08/15 09:22:20;;;;;;;8.20;4.80;;;25.10;1.00;;;;;;5079723;28;20407;-81
2021/08/15 09:24:53;;;;;;;10.83;4.37;;;25.20;1.00;;;;;;5075246;28;20450;-80
2021/08/15 09:27:25;;;;;;;5.27;3.87;;;25.30;1.00;;;;;;5078128;27;20471;-80
2021/08/15 09:30:11;;;;;;;6.97;4.43;;;25.40;1.00;;;;;;5048104;28;20503;-79
2021/08/15 09:32:46;;;;;;;5.50;3.73;;;25.50;1.00;;;;;;5041064;28;20971;-80
2021/08/15 09:35:18;;;;;;;5.60;4.30;;;25.60;1.00;;;;;;5061018;28;20460;-79
2021/08/15 09:37:46;;;;;;;6.60;3.97;;;25.90;1.00;;;;;;5058096;28;20532;-83
2021/08/15 09:40:28;;;;;;;7.63;3.93;;;26.30;1.00;;;;;;5061328;28;20469;-76
2021/08/15 09:42:55;;;;;;;6.40;4.17;;;26.90;1.00;;;;;;5046726;28;20487;-79
2021/08/15 09:45:38;;;;;;;5.20;3.47;;;27.50;1.00;;;;;;5064027;28;20502;-80
2021/08/15 09:48:32;;;;;;;5.17;4.40;;;28.40;1.00;;;;;;5053837;28;21095;-80
2021/08/15 09:51:14;;;;;;;5.93;3.50;;;29.50;1.00;;;;;;5058522;28;20505;-81
2021/08/15 09:53:44;;;;;;;4.43;3.87;;;30.30;1.00;;;;;;5047107;28;21076;-79
2021/08/15 09:56:12;;;;;;;5.10;3.50;;;30.40;1.00;;;;;;5049241;28;20444;-80
2021/08/15 09:58:44;;;;;;;7.20;3.50;;;30.10;1.00;;;;;;5056085;28;20596;-84
2021/08/15 10:01:11;;;;;;;4.53;4.10;;;29.70;1.00;;;;;;5049121;28;20412;-80
2021/08/15 10:03:42;;;;;;;4.90;4.10;;;29.70;1.00;;;;;;5045394;28;20517;-83
2021/08/15 10:06:15;;;;;;;5.77;3.63;;;30.10;1.00;;;;;;5039977;28;20486;-80
2021/08/15 10:08:43;;;;;;;5.37;3.40;;;30.80;1.00;;;;;;5067086;28;20482;-81
2021/08/15 10:11:12;;;;;;;7.50;4.30;;;31.30;1.00;;;;;;5073680;28;20521;-82
2021/08/15 10:13:39;;;;;;;5.00;3.80;;;31.70;1.00;;;;;;5045058;28;20499;-81
2021/08/15 10:16:10;;;;;;;4.40;3.90;;;32.30;1.00;;;;;;5039433;28;20459;-82
2021/08/15 10:18:42;;;;;;;4.87;3.57;;;33.10;1.00;;;;;;5043484;28;21061;-80
2021/08/15 10:21:17;;;;;;;3.73;3.37;;;34.00;1.00;;;;;;5042492;22;20503;-80
2021/08/15 10:27:47;;;;;;;4.47;4.07;;;34.60;1.00;;;;;;5033008;28;20455;-79
2021/08/15 10:31:02;;;;;;;7.27;3.70;;;33.50;1.00;;;;;;5026284;28;20472;-79
2021/08/15 10:33:31;;;;;;;6.70;4.17;;;33.50;1.00;;;;;;5011860;28;20460;-80
2021/08/15 10:36:19;;;;;;;4.13;3.73;;;34.50;1.00;;;;;;5019706;28;20422;-80
2021/08/15 10:38:47;;;;;;;5.40;3.90;;;35.00;1.00;;;;;;5012620;28;20528;-80
2021/08/15 10:41:33;;;;;;;5.97;4.17;;;35.10;1.00;;;;;;5016602;28;20533;-80
2021/08/15 10:44:03;;;;;;;5.97;4.67;;;35.30;1.00;;;;;;5010943;28;21019;-81
2021/08/15 10:46:30;;;;;;;5.10;4.03;;;35.00;1.00;;;;;;4996785;28;20441;-81
2021/08/15 10:48:59;;;;;;;7.40;3.97;;;34.90;1.00;;;;;;5010354;28;20437;-81
2021/08/15 10:51:49;;;;;;;7.47;4.23;;;34.40;1.00;;;;;;4993665;28;20465;-82
2021/08/15 10:55:07;;;;;;;5.80;4.97;;;33.80;1.00;;;;;;5000639;28;20453;-80
2021/08/15 10:57:43;;;;;;;8.30;4.90;;;32.80;1.00;;;;;;5020655;28;20448;-82
2021/08/15 11:00:49;;;;;;;4.90;4.50;;;32.40;1.00;;;;;;5017080;28;20444;-80
2021/08/15 11:03:41;;;;;;;5.30;4.80;;;32.70;1.00;;;;;;4936944;28;20464;-81
2021/08/15 11:06:45;;;;;;;6.40;4.90;;;32.90;1.00;;;;;;4934258;28;20563;-82
2021/08/15 11:09:13;;;;;;;5.93;5.13;;;32.70;1.00;;;;;;4991257;28;20452;-80
2021/08/15 11:12:13;;;;;;;5.63;4.40;;;32.20;1.00;;;;;;4999359;28;20476;-81
2021/08/15 11:15:00;;;;;;;7.20;5.17;;;32.00;1.00;;;;;;5024508;28;20455;-80
2021/08/15 11:17:28;;;;;;;5.77;4.93;;;32.00;1.00;;;;;;5027194;28;20876;-81
2021/08/15 11:19:55;;;;;;;6.57;5.40;;;31.70;1.00;;;;;;5022779;28;21230;-81
2021/08/15 11:22:27;;;;;;;6.27;4.50;;;32.40;1.00;;;;;;5026507;28;20459;-80
2021/08/15 11:25:01;;;;;;;4.80;3.70;;;33.10;1.00;;;;;;5028201;28;20466;-80
2021/08/15 11:27:37;;;;;;;8.67;5.27;;;33.10;1.00;;;;;;5027963;28;20460;-82
2021/08/15 11:30:13;;;;;;;5.40;5.00;;;32.90;1.00;;;;;;5001965;28;20485;-80
2021/08/15 11:32:42;;;;;;;5.40;4.90;;;33.80;1.00;;;;;;5021975;28;20460;-80
2021/08/15 11:35:13;;;;;;;4.50;4.10;;;35.10;1.00;;;;;;5020156;28;20457;-81
2021/08/15 11:37:42;;;;;;;5.13;4.63;;;36.10;1.00;;;;;;5015957;28;20459;-80
2021/08/15 11:40:19;;;;;;;6.03;4.53;;;37.20;1.00;;;;;;5008091;28;20436;-81
2021/08/15 11:42:58;;;;;;;5.10;4.60;;;37.80;1.00;;;;;;5016083;28;20457;-80
2021/08/15 11:45:33;;;;;;;5.27;4.83;;;37.40;1.00;;;;;;5017765;28;20453;-80
2021/08/15 11:48:10;;;;;;;6.13;5.50;;;37.50;1.00;;;;;;4994219;28;20420;-81
2021/08/15 11:50:40;;;;;;;7.23;5.00;;;37.80;1.00;;;;;;4997081;28;20528;-80
2021/08/15 11:53:18;;;;;;;5.20;4.57;;;38.30;1.00;;;;;;5005737;28;20417;-80
2021/08/15 11:55:51;;;;;;;6.13;5.10;;;38.00;1.00;;;;;;4998456;28;20472;-82
2021/08/15 11:58:22;;;;;;;8.67;5.50;;;38.00;1.00;;;;;;5001894;28;20544;-81
2021/08/15 12:00:50;;;;;;;5.40;4.53;;;37.90;1.00;;;;;;5027955;28;20975;-79
2021/08/15 12:03:19;;;;;;;8.53;7.67;;;37.20;1.00;;;;;;5011458;28;20513;-80
2021/08/15 12:05:49;;;;;;;5.90;5.30;;;36.00;1.00;;;;;;5026080;28;20477;-81
2021/08/15 12:08:18;;;;;;;5.67;4.77;;;35.80;1.00;;;;;;5026348;28;20500;-81
2021/08/15 12:10:49;;;;;;;7.00;5.30;;;36.70;1.00;;;;;;5009948;28;20449;-80
2021/08/15 12:13:23;;;;;;;6.23;5.63;;;37.90;1.00;;;;;;5014590;28;20480;-81
2021/08/15 12:15:55;;;;;;;6.70;6.00;;;37.60;1.00;;;;;;5003288;28;20476;-82
2021/08/15 12:18:31;;;;;;;5.87;5.30;;;35.60;1.00;;;;;;5014891;28;20468;-82
2021/08/15 12:21:00;;;;;;;9.47;8.63;;;34.50;1.00;;;;;;5030126;28;20416;-81
2021/08/15 12:23:28;;;;;;;5.80;4.60;;;34.10;1.00;;;;;;5033059;28;20432;-81
2021/08/15 12:26:05;;;;;;;6.60;5.23;;;33.90;1.00;;;;;;5036384;28;20469;-81
2021/08/15 12:28:33;;;;;;;6.50;5.00;;;33.80;1.00;;;;;;5021043;28;20529;-80
2021/08/15 12:31:19;;;;;;;5.23;4.73;;;33.80;1.00;;;;;;5036326;28;20436;-82
2021/08/15 12:33:48;;;;;;;6.37;5.40;;;33.70;1.00;;;;;;5036181;28;20587;-83
2021/08/15 12:36:22;;;;;;;6.27;5.00;;;33.00;1.00;;;;;;5042623;28;20469;-85
2021/08/15 12:38:51;;;;;;;8.57;6.73;;;32.50;1.00;;;;;;5039064;28;20452;-85
2021/08/15 12:41:30;;;;;;;6.70;5.93;;;32.00;1.00;;;;;;5023060;28;20514;-84
2021/08/15 12:44:08;;;;;;;8.97;5.43;;;31.80;1.00;;;;;;5005189;28;20443;-85
2021/08/15 12:46:35;;;;;;;7.80;5.57;;;31.70;1.00;;;;;;5025704;28;20503;-85
2021/08/15 12:49:21;;;;;;;6.57;5.13;;;32.10;1.00;;;;;;5021723;28;20929;-85
2021/08/15 12:51:48;;;;;;;7.20;6.10;;;33.10;1.00;;;;;;5007833;28;20469;-83
2021/08/15 12:54:18;;;;;;;6.23;5.63;;;34.40;1.00;;;;;;5035754;28;20464;-84
2021/08/15 12:56:46;;;;;;;7.70;4.97;;;36.00;1.00;;;;;;5046066;28;20433;-83
2021/08/15 12:59:13;;;;;;;6.90;5.70;;;37.40;1.00;;;;;;5044867;28;20445;-84
2021/08/15 13:01:40;;;;;;;6.97;6.27;;;38.50;1.00;;;;;;5019488;28;20448;-85
2021/08/15 13:04:07;;;;;;;6.70;5.07;;;39.00;1.00;;;;;;5016326;28;20896;-84
2021/08/15 13:06:35;;;;;;;6.63;5.40;;;39.50;1.00;;;;;;5021913;28;20461;-84
2021/08/15 13:09:05;;;;;;;6.70;5.00;;;39.70;1.00;;;;;;5022232;28;20414;-85
2021/08/15 13:11:32;;;;;;;7.57;5.47;;;40.10;1.00;;;;;;5020643;28;20473;-85